sensor_id;sensor_type;location;lat;lon;timestamp;P1;durP1;ratioP1;P2;durP2;ratioP2
37297;SDS011;30517;51.932;4.278;2022-08-19T00:01:26;3.60;;;1.88;;
37297;SDS011;30517;51.932;4.278;2022-08-19T00:04:11;3.87;;;1.97;;
37297;SDS011;30517;51.932;4.278;2022-08-19T00:06:53;3.72;;;1.85;;
37297;SDS011;30517;51.932;4.278;2022-08-19T00:09:35;3.95;;;1.85;;
37297;SDS011;30517;51.932;4.278;2022-08-19T00:12:16;3.28;;;1.52;;
37297;SDS011;30517;51.932;4.278;2022-08-19T00:14:57;3.55;;;1.75;;
37297;SDS011;30517;51.932;4.278;2022-08-19T00:17:41;3.80;;;1.83;;
37297;SDS011;30517;51.932;4.278;2022-08-19T00:20:24;3.50;;;1.52;;
37297;SDS011;30517;51.932;4.278;2022-08-19T00:23:06;3.05;;;1.70;;
37297;SDS011;30517;51.932;4.278;2022-08-19T00:25:47;4.03;;;1.77;;
37297;SDS011;30517;51.932;4.278;2022-08-19T00:28:28;4.63;;;2.22;;
37297;SDS011;30517;51.932;4.278;2022-08-19T00:31:08;3.38;;;1.83;;
37297;SDS011;30517;51.932;4.278;2022-08-19T00:33:50;4.43;;;1.95;;
37297;SDS011;30517;51.932;4.278;2022-08-19T00:36:30;3.10;;;1.63;;
37297;SDS011;30517;51.932;4.278;2022-08-19T00:39:13;3.72;;;1.73;;
37297;SDS011;30517;51.932;4.278;2022-08-19T00:41:55;3.40;;;1.83;;
37297;SDS011;30517;51.932;4.278;2022-08-19T00:44:36;3.13;;;1.65;;
37297;SDS011;30517;51.932;4.278;2022-08-19T00:47:18;4.50;;;2.05;;
37297;SDS011;30517;51.932;4.278;2022-08-19T00:49:59;4.60;;;2.20;;
37297;SDS011;30517;51.932;4.278;2022-08-19T00:52:41;4.10;;;2.08;;
37297;SDS011;30517;51.932;4.278;2022-08-19T00:55:26;4.50;;;1.98;;
37297;SDS011;30517;51.932;4.278;2022-08-19T00:58:11;3.70;;;1.80;;
37297;SDS011;30517;51.932;4.278;2022-08-19T01:00:54;3.22;;;1.70;;
37297;SDS011;30517;51.932;4.278;2022-08-19T01:03:35;3.50;;;1.83;;
37297;SDS011;30517;51.932;4.278;2022-08-19T01:06:16;3.90;;;1.60;;
37297;SDS011;30517;51.932;4.278;2022-08-19T01:08:58;4.28;;;2.00;;
37297;SDS011;30517;51.932;4.278;2022-08-19T01:11:40;3.42;;;1.95;;
37297;SDS011;30517;51.932;4.278;2022-08-19T01:14:24;3.95;;;2.03;;
37297;SDS011;30517;51.932;4.278;2022-08-19T01:17:07;4.32;;;2.10;;
37297;SDS011;30517;51.932;4.278;2022-08-19T01:19:49;3.60;;;2.08;;
37297;SDS011;30517;51.932;4.278;2022-08-19T01:22:31;5.35;;;2.53;;
37297;SDS011;30517;51.932;4.278;2022-08-19T01:25:19;3.90;;;1.80;;
37297;SDS011;30517;51.932;4.278;2022-08-19T01:28:02;4.28;;;2.38;;
37297;SDS011;30517;51.932;4.278;2022-08-19T01:30:44;4.63;;;2.70;;
37297;SDS011;30517;51.932;4.278;2022-08-19T01:33:26;5.53;;;2.38;;
37297;SDS011;30517;51.932;4.278;2022-08-19T01:38:49;5.80;;;3.17;;
37297;SDS011;30517;51.932;4.278;2022-08-19T01:41:30;5.80;;;3.22;;
37297;SDS011;30517;51.932;4.278;2022-08-19T01:44:11;5.88;;;2.95;;
37297;SDS011;30517;51.932;4.278;2022-08-19T01:46:52;6.22;;;3.30;;
37297;SDS011;30517;51.932;4.278;2022-08-19T01:49:33;6.75;;;3.00;;
37297;SDS011;30517;51.932;4.278;2022-08-19T01:52:14;5.57;;;3.00;;
37297;SDS011;30517;51.932;4.278;2022-08-19T01:54:55;5.63;;;2.92;;
37297;SDS011;30517;51.932;4.278;2022-08-19T01:57:35;5.65;;;3.30;;
37297;SDS011;30517;51.932;4.278;2022-08-19T02:00:18;6.60;;;3.40;;
37297;SDS011;30517;51.932;4.278;2022-08-19T02:03:01;5.82;;;3.35;;
37297;SDS011;30517;51.932;4.278;2022-08-19T02:05:42;5.80;;;3.00;;
37297;SDS011;30517;51.932;4.278;2022-08-19T02:08:23;5.70;;;3.30;;
37297;SDS011;30517;51.932;4.278;2022-08-19T02:11:04;5.20;;;3.05;;
37297;SDS011;30517;51.932;4.278;2022-08-19T02:13:46;6.15;;;3.75;;
37297;SDS011;30517;51.932;4.278;2022-08-19T02:16:29;6.25;;;4.05;;
37297;SDS011;30517;51.932;4.278;2022-08-19T02:19:10;5.38;;;3.20;;
37297;SDS011;30517;51.932;4.278;2022-08-19T02:21:51;6.00;;;3.40;;
37297;SDS011;30517;51.932;4.278;2022-08-19T02:24:32;5.60;;;3.55;;
37297;SDS011;30517;51.932;4.278;2022-08-19T02:27:13;7.28;;;4.00;;
37297;SDS011;30517;51.932;4.278;2022-08-19T02:29:55;7.15;;;4.05;;
37297;SDS011;30517;51.932;4.278;2022-08-19T02:32:36;6.07;;;3.95;;
37297;SDS011;30517;51.932;4.278;2022-08-19T02:35:17;6.50;;;3.95;;
37297;SDS011;30517;51.932;4.278;2022-08-19T02:37:58;7.32;;;4.60;;
37297;SDS011;30517;51.932;4.278;2022-08-19T02:40:59;6.13;;;3.88;;
37297;SDS011;30517;51.932;4.278;2022-08-19T02:43:50;6.70;;;3.83;;
37297;SDS011;30517;51.932;4.278;2022-08-19T02:46:31;10.95;;;6.88;;
37297;SDS011;30517;51.932;4.278;2022-08-19T02:49:13;7.32;;;4.57;;
37297;SDS011;30517;51.932;4.278;2022-08-19T02:51:56;7.93;;;4.32;;
37297;SDS011;30517;51.932;4.278;2022-08-19T02:54:37;7.28;;;3.92;;
37297;SDS011;30517;51.932;4.278;2022-08-19T02:57:18;7.53;;;4.70;;
37297;SDS011;30517;51.932;4.278;2022-08-19T02:59:59;9.82;;;6.13;;
37297;SDS011;30517;51.932;4.278;2022-08-19T03:02:41;9.93;;;6.03;;
37297;SDS011;30517;51.932;4.278;2022-08-19T03:05:22;8.48;;;4.65;;
37297;SDS011;30517;51.932;4.278;2022-08-19T03:08:03;8.48;;;5.13;;
37297;SDS011;30517;51.932;4.278;2022-08-19T03:10:46;9.40;;;6.03;;
37297;SDS011;30517;51.932;4.278;2022-08-19T03:13:28;7.78;;;5.18;;
37297;SDS011;30517;51.932;4.278;2022-08-19T03:16:09;8.02;;;4.88;;
37297;SDS011;30517;51.932;4.278;2022-08-19T03:18:51;8.30;;;5.15;;
37297;SDS011;30517;51.932;4.278;2022-08-19T03:21:33;9.23;;;5.57;;
37297;SDS011;30517;51.932;4.278;2022-08-19T03:24:14;7.90;;;5.30;;
37297;SDS011;30517;51.932;4.278;2022-08-19T03:26:57;9.25;;;5.55;;
37297;SDS011;30517;51.932;4.278;2022-08-19T03:29:38;9.98;;;5.90;;
37297;SDS011;30517;51.932;4.278;2022-08-19T03:32:19;9.25;;;6.30;;
37297;SDS011;30517;51.932;4.278;2022-08-19T03:35:01;11.25;;;6.40;;
37297;SDS011;30517;51.932;4.278;2022-08-19T03:37:43;10.55;;;6.90;;
37297;SDS011;30517;51.932;4.278;2022-08-19T03:40:23;11.90;;;7.55;;
37297;SDS011;30517;51.932;4.278;2022-08-19T03:43:05;12.32;;;7.88;;
37297;SDS011;30517;51.932;4.278;2022-08-19T03:45:45;12.52;;;7.40;;
37297;SDS011;30517;51.932;4.278;2022-08-19T03:48:28;11.32;;;7.38;;
37297;SDS011;30517;51.932;4.278;2022-08-19T03:51:18;12.73;;;8.27;;
37297;SDS011;30517;51.932;4.278;2022-08-19T03:54:02;13.32;;;7.55;;
37297;SDS011;30517;51.932;4.278;2022-08-19T03:56:45;11.88;;;7.97;;
37297;SDS011;30517;51.932;4.278;2022-08-19T03:59:29;11.38;;;7.30;;
37297;SDS011;30517;51.932;4.278;2022-08-19T04:02:12;13.98;;;7.85;;
37297;SDS011;30517;51.932;4.278;2022-08-19T04:04:53;11.60;;;7.43;;
37297;SDS011;30517;51.932;4.278;2022-08-19T04:07:35;11.45;;;7.38;;
37297;SDS011;30517;51.932;4.278;2022-08-19T04:10:16;12.20;;;8.15;;
37297;SDS011;30517;51.932;4.278;2022-08-19T04:12:57;11.15;;;7.32;;
37297;SDS011;30517;51.932;4.278;2022-08-19T04:15:41;12.95;;;7.93;;
37297;SDS011;30517;51.932;4.278;2022-08-19T04:18:25;11.50;;;7.72;;
37297;SDS011;30517;51.932;4.278;2022-08-19T04:21:14;13.20;;;8.60;;
37297;SDS011;30517;51.932;4.278;2022-08-19T04:24:00;13.20;;;7.95;;
37297;SDS011;30517;51.932;4.278;2022-08-19T04:26:41;12.70;;;7.97;;
37297;SDS011;30517;51.932;4.278;2022-08-19T04:29:23;13.02;;;8.68;;
37297;SDS011;30517;51.932;4.278;2022-08-19T04:32:05;13.15;;;8.82;;
37297;SDS011;30517;51.932;4.278;2022-08-19T04:34:46;12.45;;;8.45;;
37297;SDS011;30517;51.932;4.278;2022-08-19T04:37:27;14.23;;;7.97;;
37297;SDS011;30517;51.932;4.278;2022-08-19T04:40:11;12.98;;;8.77;;
37297;SDS011;30517;51.932;4.278;2022-08-19T04:43:11;11.50;;;7.68;;
37297;SDS011;30517;51.932;4.278;2022-08-19T04:45:53;11.70;;;7.63;;
37297;SDS011;30517;51.932;4.278;2022-08-19T04:48:35;11.52;;;7.35;;
37297;SDS011;30517;51.932;4.278;2022-08-19T04:51:16;11.52;;;7.65;;
37297;SDS011;30517;51.932;4.278;2022-08-19T04:53:57;11.48;;;8.02;;
37297;SDS011;30517;51.932;4.278;2022-08-19T04:56:40;11.23;;;7.43;;
37297;SDS011;30517;51.932;4.278;2022-08-19T04:59:21;13.38;;;7.60;;
37297;SDS011;30517;51.932;4.278;2022-08-19T05:02:02;12.73;;;8.07;;
37297;SDS011;30517;51.932;4.278;2022-08-19T05:04:44;13.25;;;7.72;;
37297;SDS011;30517;51.932;4.278;2022-08-19T05:07:25;14.65;;;8.48;;
37297;SDS011;30517;51.932;4.278;2022-08-19T05:10:07;11.82;;;7.53;;
37297;SDS011;30517;51.932;4.278;2022-08-19T05:12:48;11.73;;;7.95;;
37297;SDS011;30517;51.932;4.278;2022-08-19T05:15:29;11.95;;;7.95;;
37297;SDS011;30517;51.932;4.278;2022-08-19T05:18:11;11.23;;;6.93;;
37297;SDS011;30517;51.932;4.278;2022-08-19T05:21:13;14.70;;;8.32;;
37297;SDS011;30517;51.932;4.278;2022-08-19T05:24:14;12.30;;;7.47;;
37297;SDS011;30517;51.932;4.278;2022-08-19T05:26:55;10.85;;;7.03;;
37297;SDS011;30517;51.932;4.278;2022-08-19T05:29:36;11.23;;;6.82;;
37297;SDS011;30517;51.932;4.278;2022-08-19T05:32:17;10.95;;;7.20;;
37297;SDS011;30517;51.932;4.278;2022-08-19T05:34:58;10.68;;;6.82;;
37297;SDS011;30517;51.932;4.278;2022-08-19T05:37:39;11.70;;;6.93;;
37297;SDS011;30517;51.932;4.278;2022-08-19T05:40:20;11.77;;;6.82;;
37297;SDS011;30517;51.932;4.278;2022-08-19T05:43:03;11.10;;;7.05;;
37297;SDS011;30517;51.932;4.278;2022-08-19T05:45:46;11.50;;;7.27;;
37297;SDS011;30517;51.932;4.278;2022-08-19T05:48:26;11.57;;;7.15;;
37297;SDS011;30517;51.932;4.278;2022-08-19T05:51:08;11.35;;;6.88;;
37297;SDS011;30517;51.932;4.278;2022-08-19T05:53:49;11.18;;;6.82;;
37297;SDS011;30517;51.932;4.278;2022-08-19T05:56:30;10.80;;;6.18;;
37297;SDS011;30517;51.932;4.278;2022-08-19T05:59:11;11.63;;;6.72;;
37297;SDS011;30517;51.932;4.278;2022-08-19T06:01:52;9.63;;;6.57;;
37297;SDS011;30517;51.932;4.278;2022-08-19T06:04:36;11.57;;;8.07;;
37297;SDS011;30517;51.932;4.278;2022-08-19T06:07:19;11.55;;;7.72;;
37297;SDS011;30517;51.932;4.278;2022-08-19T06:10:00;11.95;;;6.85;;
37297;SDS011;30517;51.932;4.278;2022-08-19T06:12:41;11.55;;;6.97;;
37297;SDS011;30517;51.932;4.278;2022-08-19T06:15:22;10.88;;;6.40;;
37297;SDS011;30517;51.932;4.278;2022-08-19T06:18:05;12.77;;;7.57;;
37297;SDS011;30517;51.932;4.278;2022-08-19T06:20:46;13.68;;;7.35;;
37297;SDS011;30517;51.932;4.278;2022-08-19T06:23:27;10.90;;;7.40;;
37297;SDS011;30517;51.932;4.278;2022-08-19T06:26:11;11.38;;;7.30;;
37297;SDS011;30517;51.932;4.278;2022-08-19T06:28:52;11.10;;;6.63;;
37297;SDS011;30517;51.932;4.278;2022-08-19T06:31:34;13.63;;;7.28;;
37297;SDS011;30517;51.932;4.278;2022-08-19T06:34:17;11.52;;;6.70;;
37297;SDS011;30517;51.932;4.278;2022-08-19T06:36:59;11.65;;;6.78;;
37297;SDS011;30517;51.932;4.278;2022-08-19T06:39:42;11.63;;;6.30;;
37297;SDS011;30517;51.932;4.278;2022-08-19T06:42:24;10.40;;;6.45;;
37297;SDS011;30517;51.932;4.278;2022-08-19T06:45:05;11.93;;;6.85;;
37297;SDS011;30517;51.932;4.278;2022-08-19T06:47:48;10.18;;;6.47;;
37297;SDS011;30517;51.932;4.278;2022-08-19T06:50:29;9.88;;;6.18;;
37297;SDS011;30517;51.932;4.278;2022-08-19T06:53:10;9.32;;;5.90;;
37297;SDS011;30517;51.932;4.278;2022-08-19T06:55:51;10.27;;;6.53;;
37297;SDS011;30517;51.932;4.278;2022-08-19T06:58:37;9.73;;;6.53;;
37297;SDS011;30517;51.932;4.278;2022-08-19T07:01:19;9.68;;;6.40;;
37297;SDS011;30517;51.932;4.278;2022-08-19T07:04:00;8.50;;;5.82;;
37297;SDS011;30517;51.932;4.278;2022-08-19T07:06:42;9.20;;;5.57;;
37297;SDS011;30517;51.932;4.278;2022-08-19T07:09:24;9.02;;;6.00;;
37297;SDS011;30517;51.932;4.278;2022-08-19T07:12:07;10.82;;;6.10;;
37297;SDS011;30517;51.932;4.278;2022-08-19T07:14:49;10.07;;;5.80;;
37297;SDS011;30517;51.932;4.278;2022-08-19T07:17:30;9.45;;;5.85;;
37297;SDS011;30517;51.932;4.278;2022-08-19T07:20:11;7.93;;;5.47;;
37297;SDS011;30517;51.932;4.278;2022-08-19T07:22:52;9.43;;;5.70;;
37297;SDS011;30517;51.932;4.278;2022-08-19T07:25:33;11.30;;;6.13;;
37297;SDS011;30517;51.932;4.278;2022-08-19T07:28:17;9.82;;;5.32;;
37297;SDS011;30517;51.932;4.278;2022-08-19T07:30:58;8.57;;;5.07;;
37297;SDS011;30517;51.932;4.278;2022-08-19T07:33:41;9.73;;;5.05;;
37297;SDS011;30517;51.932;4.278;2022-08-19T07:36:24;8.00;;;5.30;;
37297;SDS011;30517;51.932;4.278;2022-08-19T07:39:12;10.60;;;5.47;;
37297;SDS011;30517;51.932;4.278;2022-08-19T07:41:57;10.13;;;5.75;;
37297;SDS011;30517;51.932;4.278;2022-08-19T07:44:39;10.07;;;4.88;;
37297;SDS011;30517;51.932;4.278;2022-08-19T07:47:21;8.25;;;4.72;;
37297;SDS011;30517;51.932;4.278;2022-08-19T07:50:03;9.93;;;5.05;;
37297;SDS011;30517;51.932;4.278;2022-08-19T07:52:46;7.33;;;4.50;;
37297;SDS011;30517;51.932;4.278;2022-08-19T07:55:28;8.43;;;4.95;;
37297;SDS011;30517;51.932;4.278;2022-08-19T07:58:10;6.95;;;4.43;;
37297;SDS011;30517;51.932;4.278;2022-08-19T08:00:53;7.47;;;4.28;;
37297;SDS011;30517;51.932;4.278;2022-08-19T08:03:35;7.00;;;4.38;;
37297;SDS011;30517;51.932;4.278;2022-08-19T08:06:35;7.68;;;4.35;;
37297;SDS011;30517;51.932;4.278;2022-08-19T08:09:36;8.20;;;4.97;;
37297;SDS011;30517;51.932;4.278;2022-08-19T08:15:11;7.47;;;4.05;;
37297;SDS011;30517;51.932;4.278;2022-08-19T08:17:58;7.50;;;3.92;;
37297;SDS011;30517;51.932;4.278;2022-08-19T08:20:39;8.05;;;4.65;;
37297;SDS011;30517;51.932;4.278;2022-08-19T08:23:20;7.97;;;4.68;;
37297;SDS011;30517;51.932;4.278;2022-08-19T08:26:08;8.07;;;4.32;;
37297;SDS011;30517;51.932;4.278;2022-08-19T08:28:49;6.70;;;3.85;;
37297;SDS011;30517;51.932;4.278;2022-08-19T08:31:30;8.38;;;4.65;;
37297;SDS011;30517;51.932;4.278;2022-08-19T08:34:11;7.10;;;3.47;;
37297;SDS011;30517;51.932;4.278;2022-08-19T08:36:53;7.03;;;3.85;;
37297;SDS011;30517;51.932;4.278;2022-08-19T08:39:34;7.82;;;4.25;;
37297;SDS011;30517;51.932;4.278;2022-08-19T08:42:18;7.68;;;3.72;;
37297;SDS011;30517;51.932;4.278;2022-08-19T08:45:09;6.50;;;3.70;;
37297;SDS011;30517;51.932;4.278;2022-08-19T08:47:55;7.22;;;3.95;;
37297;SDS011;30517;51.932;4.278;2022-08-19T08:50:42;7.75;;;3.80;;
37297;SDS011;30517;51.932;4.278;2022-08-19T08:53:27;8.85;;;3.85;;
37297;SDS011;30517;51.932;4.278;2022-08-19T08:56:09;7.70;;;3.40;;
37297;SDS011;30517;51.932;4.278;2022-08-19T09:01:38;6.00;;;3.70;;
37297;SDS011;30517;51.932;4.278;2022-08-19T09:04:19;6.88;;;3.50;;
37297;SDS011;30517;51.932;4.278;2022-08-19T09:07:11;6.55;;;3.15;;
37297;SDS011;30517;51.932;4.278;2022-08-19T09:13:21;5.35;;;3.33;;
37297;SDS011;30517;51.932;4.278;2022-08-19T09:16:05;8.38;;;3.20;;
37297;SDS011;30517;51.932;4.278;2022-08-19T09:18:50;5.60;;;3.08;;
37297;SDS011;30517;51.932;4.278;2022-08-19T09:21:33;9.98;;;3.38;;
37297;SDS011;30517;51.932;4.278;2022-08-19T09:24:14;4.80;;;2.80;;
37297;SDS011;30517;51.932;4.278;2022-08-19T09:26:55;5.28;;;3.05;;
37297;SDS011;30517;51.932;4.278;2022-08-19T09:29:36;6.13;;;3.30;;
37297;SDS011;30517;51.932;4.278;2022-08-19T09:32:17;6.00;;;3.45;;
37297;SDS011;30517;51.932;4.278;2022-08-19T09:34:58;7.95;;;3.08;;
37297;SDS011;30517;51.932;4.278;2022-08-19T09:37:41;5.88;;;2.72;;
37297;SDS011;30517;51.932;4.278;2022-08-19T09:40:24;4.53;;;2.50;;
37297;SDS011;30517;51.932;4.278;2022-08-19T09:43:06;6.07;;;2.80;;
37297;SDS011;30517;51.932;4.278;2022-08-19T09:45:48;5.15;;;2.50;;
37297;SDS011;30517;51.932;4.278;2022-08-19T09:48:29;4.85;;;2.58;;
37297;SDS011;30517;51.932;4.278;2022-08-19T09:51:11;5.00;;;2.90;;
37297;SDS011;30517;51.932;4.278;2022-08-19T09:53:58;4.20;;;2.30;;
37297;SDS011;30517;51.932;4.278;2022-08-19T09:56:43;4.22;;;2.33;;
37297;SDS011;30517;51.932;4.278;2022-08-19T09:59:24;4.57;;;2.40;;
37297;SDS011;30517;51.932;4.278;2022-08-19T10:02:05;5.00;;;2.38;;
37297;SDS011;30517;51.932;4.278;2022-08-19T10:04:46;4.65;;;2.50;;
37297;SDS011;30517;51.932;4.278;2022-08-19T10:07:45;5.28;;;2.20;;
37297;SDS011;30517;51.932;4.278;2022-08-19T10:10:27;7.18;;;2.40;;
37297;SDS011;30517;51.932;4.278;2022-08-19T10:13:07;5.28;;;2.40;;
37297;SDS011;30517;51.932;4.278;2022-08-19T10:15:49;3.97;;;2.10;;
37297;SDS011;30517;51.932;4.278;2022-08-19T10:18:30;4.55;;;2.08;;
37297;SDS011;30517;51.932;4.278;2022-08-19T10:21:15;5.63;;;2.17;;
37297;SDS011;30517;51.932;4.278;2022-08-19T10:23:59;3.42;;;2.00;;
37297;SDS011;30517;51.932;4.278;2022-08-19T10:26:43;5.63;;;2.13;;
37297;SDS011;30517;51.932;4.278;2022-08-19T10:29:27;4.63;;;2.33;;
37297;SDS011;30517;51.932;4.278;2022-08-19T10:32:08;4.18;;;2.00;;
37297;SDS011;30517;51.932;4.278;2022-08-19T10:34:50;4.00;;;1.83;;
37297;SDS011;30517;51.932;4.278;2022-08-19T10:37:32;3.78;;;2.00;;
37297;SDS011;30517;51.932;4.278;2022-08-19T10:40:13;4.40;;;1.92;;
37297;SDS011;30517;51.932;4.278;2022-08-19T10:42:54;4.90;;;1.80;;
37297;SDS011;30517;51.932;4.278;2022-08-19T10:45:36;4.57;;;2.05;;
37297;SDS011;30517;51.932;4.278;2022-08-19T10:48:17;4.18;;;1.83;;
37297;SDS011;30517;51.932;4.278;2022-08-19T10:50:58;4.43;;;1.80;;
37297;SDS011;30517;51.932;4.278;2022-08-19T10:53:57;4.75;;;2.00;;
37297;SDS011;30517;51.932;4.278;2022-08-19T10:56:39;2.30;;;1.35;;
37297;SDS011;30517;51.932;4.278;2022-08-19T10:59:32;4.00;;;2.00;;
37297;SDS011;30517;51.932;4.278;2022-08-19T11:02:15;3.13;;;1.60;;
37297;SDS011;30517;51.932;4.278;2022-08-19T11:04:56;5.53;;;1.88;;
37297;SDS011;30517;51.932;4.278;2022-08-19T11:07:37;3.10;;;1.58;;
37297;SDS011;30517;51.932;4.278;2022-08-19T11:10:20;3.83;;;1.73;;
37297;SDS011;30517;51.932;4.278;2022-08-19T11:13:01;2.75;;;1.80;;
37297;SDS011;30517;51.932;4.278;2022-08-19T11:15:43;3.35;;;1.50;;
37297;SDS011;30517;51.932;4.278;2022-08-19T11:18:25;5.15;;;1.75;;
37297;SDS011;30517;51.932;4.278;2022-08-19T11:21:07;4.95;;;1.67;;
37297;SDS011;30517;51.932;4.278;2022-08-19T11:23:50;5.57;;;2.17;;
37297;SDS011;30517;51.932;4.278;2022-08-19T11:26:33;7.63;;;1.80;;
37297;SDS011;30517;51.932;4.278;2022-08-19T11:29:15;3.95;;;1.58;;
37297;SDS011;30517;51.932;4.278;2022-08-19T11:31:57;3.95;;;1.55;;
37297;SDS011;30517;51.932;4.278;2022-08-19T11:34:38;2.97;;;1.40;;
37297;SDS011;30517;51.932;4.278;2022-08-19T11:37:19;5.63;;;2.45;;
37297;SDS011;30517;51.932;4.278;2022-08-19T11:40:00;5.30;;;1.73;;
37297;SDS011;30517;51.932;4.278;2022-08-19T11:42:41;3.15;;;1.50;;
37297;SDS011;30517;51.932;4.278;2022-08-19T11:45:37;3.58;;;1.60;;
37297;SDS011;30517;51.932;4.278;2022-08-19T11:48:17;4.32;;;1.65;;
37297;SDS011;30517;51.932;4.278;2022-08-19T11:53:47;3.28;;;1.52;;
37297;SDS011;30517;51.932;4.278;2022-08-19T11:56:30;3.72;;;1.75;;
37297;SDS011;30517;51.932;4.278;2022-08-19T11:59:11;7.13;;;1.80;;
37297;SDS011;30517;51.932;4.278;2022-08-19T12:01:52;3.38;;;1.60;;
37297;SDS011;30517;51.932;4.278;2022-08-19T12:04:33;2.65;;;1.23;;
37297;SDS011;30517;51.932;4.278;2022-08-19T12:07:13;3.67;;;1.80;;
37297;SDS011;30517;51.932;4.278;2022-08-19T12:09:54;3.17;;;1.50;;
37297;SDS011;30517;51.932;4.278;2022-08-19T12:12:36;4.18;;;1.45;;
37297;SDS011;30517;51.932;4.278;2022-08-19T12:15:22;2.40;;;1.20;;
37297;SDS011;30517;51.932;4.278;2022-08-19T12:18:03;2.78;;;1.27;;
37297;SDS011;30517;51.932;4.278;2022-08-19T12:20:45;2.70;;;1.30;;
37297;SDS011;30517;51.932;4.278;2022-08-19T12:23:27;3.30;;;1.38;;
37297;SDS011;30517;51.932;4.278;2022-08-19T12:26:09;3.85;;;1.63;;
37297;SDS011;30517;51.932;4.278;2022-08-19T12:28:51;3.25;;;1.60;;
37297;SDS011;30517;51.932;4.278;2022-08-19T12:31:32;2.88;;;1.42;;
37297;SDS011;30517;51.932;4.278;2022-08-19T12:34:13;2.13;;;1.15;;
37297;SDS011;30517;51.932;4.278;2022-08-19T12:36:53;2.40;;;1.30;;
37297;SDS011;30517;51.932;4.278;2022-08-19T12:39:35;2.70;;;1.42;;
37297;SDS011;30517;51.932;4.278;2022-08-19T12:42:18;3.42;;;1.67;;
37297;SDS011;30517;51.932;4.278;2022-08-19T12:45:02;2.35;;;1.27;;
37297;SDS011;30517;51.932;4.278;2022-08-19T12:47:43;3.15;;;1.40;;
37297;SDS011;30517;51.932;4.278;2022-08-19T12:50:26;2.78;;;1.30;;
37297;SDS011;30517;51.932;4.278;2022-08-19T12:53:07;2.85;;;1.30;;
37297;SDS011;30517;51.932;4.278;2022-08-19T12:55:48;3.63;;;1.50;;
37297;SDS011;30517;51.932;4.278;2022-08-19T12:58:35;2.97;;;1.25;;
37297;SDS011;30517;51.932;4.278;2022-08-19T13:01:16;3.42;;;1.23;;
37297;SDS011;30517;51.932;4.278;2022-08-19T13:03:59;3.50;;;1.30;;
37297;SDS011;30517;51.932;4.278;2022-08-19T13:06:40;4.22;;;1.67;;
37297;SDS011;30517;51.932;4.278;2022-08-19T13:09:22;3.50;;;1.60;;
37297;SDS011;30517;51.932;4.278;2022-08-19T13:12:03;7.88;;;1.50;;
37297;SDS011;30517;51.932;4.278;2022-08-19T13:14:47;7.05;;;1.33;;
37297;SDS011;30517;51.932;4.278;2022-08-19T13:17:29;2.05;;;1.10;;
37297;SDS011;30517;51.932;4.278;2022-08-19T13:20:10;3.95;;;1.55;;
37297;SDS011;30517;51.932;4.278;2022-08-19T13:22:52;3.90;;;1.52;;
37297;SDS011;30517;51.932;4.278;2022-08-19T13:25:33;3.35;;;1.55;;
37297;SDS011;30517;51.932;4.278;2022-08-19T13:28:14;4.25;;;1.27;;
37297;SDS011;30517;51.932;4.278;2022-08-19T13:30:57;3.83;;;1.30;;
37297;SDS011;30517;51.932;4.278;2022-08-19T13:34:18;2.00;;;1.10;;
37297;SDS011;30517;51.932;4.278;2022-08-19T13:39:45;2.50;;;1.20;;
37297;SDS011;30517;51.932;4.278;2022-08-19T13:42:27;3.03;;;1.55;;
37297;SDS011;30517;51.932;4.278;2022-08-19T13:45:10;2.80;;;1.30;;
37297;SDS011;30517;51.932;4.278;2022-08-19T13:47:52;3.60;;;1.48;;
37297;SDS011;30517;51.932;4.278;2022-08-19T13:50:35;5.23;;;1.50;;
37297;SDS011;30517;51.932;4.278;2022-08-19T13:53:21;3.72;;;1.50;;
37297;SDS011;30517;51.932;4.278;2022-08-19T13:56:06;4.68;;;1.30;;
37297;SDS011;30517;51.932;4.278;2022-08-19T13:58:47;2.95;;;1.30;;
37297;SDS011;30517;51.932;4.278;2022-08-19T14:01:28;5.40;;;1.42;;
37297;SDS011;30517;51.932;4.278;2022-08-19T14:04:10;9.68;;;1.60;;
37297;SDS011;30517;51.932;4.278;2022-08-19T14:06:51;5.50;;;1.85;;
37297;SDS011;30517;51.932;4.278;2022-08-19T14:09:32;4.15;;;1.20;;
37297;SDS011;30517;51.932;4.278;2022-08-19T14:12:12;5.18;;;1.40;;
37297;SDS011;30517;51.932;4.278;2022-08-19T14:14:53;2.80;;;1.17;;
37297;SDS011;30517;51.932;4.278;2022-08-19T14:17:34;3.03;;;1.73;;
37297;SDS011;30517;51.932;4.278;2022-08-19T14:20:19;5.22;;;1.60;;
37297;SDS011;30517;51.932;4.278;2022-08-19T14:23:00;4.85;;;1.83;;
37297;SDS011;30517;51.932;4.278;2022-08-19T14:25:41;3.55;;;1.30;;
37297;SDS011;30517;51.932;4.278;2022-08-19T14:28:22;4.82;;;1.50;;
37297;SDS011;30517;51.932;4.278;2022-08-19T14:31:03;3.50;;;1.38;;
37297;SDS011;30517;51.932;4.278;2022-08-19T14:33:47;3.83;;;1.80;;
37297;SDS011;30517;51.932;4.278;2022-08-19T14:36:28;2.60;;;1.17;;
37297;SDS011;30517;51.932;4.278;2022-08-19T14:39:10;2.35;;;1.30;;
37297;SDS011;30517;51.932;4.278;2022-08-19T14:41:51;3.28;;;1.25;;
37297;SDS011;30517;51.932;4.278;2022-08-19T14:44:32;3.90;;;1.20;;
37297;SDS011;30517;51.932;4.278;2022-08-19T14:47:14;2.38;;;1.00;;
37297;SDS011;30517;51.932;4.278;2022-08-19T14:49:55;3.45;;;1.40;;
37297;SDS011;30517;51.932;4.278;2022-08-19T14:52:36;2.83;;;1.40;;
37297;SDS011;30517;51.932;4.278;2022-08-19T14:55:17;3.70;;;1.50;;
37297;SDS011;30517;51.932;4.278;2022-08-19T14:57:58;4.40;;;1.55;;
37297;SDS011;30517;51.932;4.278;2022-08-19T15:00:39;5.03;;;1.70;;
37297;SDS011;30517;51.932;4.278;2022-08-19T15:03:20;3.38;;;1.40;;
37297;SDS011;30517;51.932;4.278;2022-08-19T15:06:01;3.28;;;1.42;;
37297;SDS011;30517;51.932;4.278;2022-08-19T15:08:44;3.47;;;1.33;;
37297;SDS011;30517;51.932;4.278;2022-08-19T15:11:25;2.10;;;1.23;;
37297;SDS011;30517;51.932;4.278;2022-08-19T15:14:07;3.10;;;1.30;;
37297;SDS011;30517;51.932;4.278;2022-08-19T15:16:49;3.03;;;1.10;;
37297;SDS011;30517;51.932;4.278;2022-08-19T15:19:31;3.60;;;1.27;;
37297;SDS011;30517;51.932;4.278;2022-08-19T15:22:15;3.15;;;1.17;;
37297;SDS011;30517;51.932;4.278;2022-08-19T15:24:56;3.17;;;1.10;;
37297;SDS011;30517;51.932;4.278;2022-08-19T15:27:37;3.10;;;1.00;;
37297;SDS011;30517;51.932;4.278;2022-08-19T15:30:21;2.45;;;1.10;;
37297;SDS011;30517;51.932;4.278;2022-08-19T15:33:04;2.35;;;1.05;;
37297;SDS011;30517;51.932;4.278;2022-08-19T15:35:46;2.65;;;1.25;;
37297;SDS011;30517;51.932;4.278;2022-08-19T15:38:31;3.00;;;1.27;;
37297;SDS011;30517;51.932;4.278;2022-08-19T15:41:18;2.47;;;1.20;;
37297;SDS011;30517;51.932;4.278;2022-08-19T15:44:17;2.95;;;1.20;;
37297;SDS011;30517;51.932;4.278;2022-08-19T15:47:01;1.63;;;0.80;;
37297;SDS011;30517;51.932;4.278;2022-08-19T15:49:41;2.30;;;1.13;;
37297;SDS011;30517;51.932;4.278;2022-08-19T15:52:22;4.03;;;1.40;;
37297;SDS011;30517;51.932;4.278;2022-08-19T15:55:04;2.40;;;1.08;;
37297;SDS011;30517;51.932;4.278;2022-08-19T15:57:46;3.27;;;1.00;;
37297;SDS011;30517;51.932;4.278;2022-08-19T16:00:45;2.05;;;1.00;;
37297;SDS011;30517;51.932;4.278;2022-08-19T16:03:45;2.47;;;1.13;;
37297;SDS011;30517;51.932;4.278;2022-08-19T16:06:46;3.20;;;1.10;;
37297;SDS011;30517;51.932;4.278;2022-08-19T16:09:31;2.25;;;0.90;;
37297;SDS011;30517;51.932;4.278;2022-08-19T16:12:13;3.03;;;1.20;;
37297;SDS011;30517;51.932;4.278;2022-08-19T16:14:56;1.85;;;0.90;;
37297;SDS011;30517;51.932;4.278;2022-08-19T16:17:37;3.78;;;1.27;;
37297;SDS011;30517;51.932;4.278;2022-08-19T16:20:18;3.10;;;1.20;;
37297;SDS011;30517;51.932;4.278;2022-08-19T16:23:01;2.55;;;1.10;;
37297;SDS011;30517;51.932;4.278;2022-08-19T16:25:43;2.42;;;1.10;;
37297;SDS011;30517;51.932;4.278;2022-08-19T16:28:24;2.72;;;1.33;;
37297;SDS011;30517;51.932;4.278;2022-08-19T16:31:05;2.58;;;1.20;;
37297;SDS011;30517;51.932;4.278;2022-08-19T16:33:47;2.83;;;1.30;;
37297;SDS011;30517;51.932;4.278;2022-08-19T16:36:28;2.33;;;1.05;;